createdAt,value
2022-11-18T00:00:05.994Z,10.47
2022-11-18T00:01:06.014Z,10.57
2022-11-18T00:02:06.023Z,10.51
2022-11-18T00:03:05.966Z,10.47
2022-11-18T00:04:05.971Z,10.54
2022-11-18T00:05:05.940Z,10.54
2022-11-18T00:06:05.940Z,10.49
2022-11-18T00:07:06.105Z,10.51
2022-11-18T00:08:05.907Z,10.46
2022-11-18T00:09:05.899Z,10.46
2022-11-18T00:10:05.932Z,10.44
2022-11-18T00:11:05.882Z,10.47
2022-11-18T00:12:05.882Z,10.44
2022-11-18T00:13:05.868Z,10.39
2022-11-18T00:14:05.860Z,10.51
2022-11-18T00:15:05.892Z,10.52
2022-11-18T00:16:05.822Z,10.46
2022-11-18T00:17:05.855Z,10.47
2022-11-18T00:18:05.819Z,10.52
2022-11-18T00:19:05.792Z,10.47
2022-11-18T00:20:05.797Z,10.47
2022-11-18T00:21:05.774Z,10.44
2022-11-18T00:22:05.855Z,10.49
2022-11-18T00:23:05.776Z,10.43
2022-11-18T00:24:05.750Z,10.44
2022-11-18T00:25:05.737Z,10.44
2022-11-18T00:26:05.773Z,10.42
2022-11-18T00:27:05.723Z,10.47
2022-11-18T00:28:05.693Z,10.42
2022-11-18T00:29:05.698Z,10.42
2022-11-18T00:30:05.673Z,10.44
2022-11-18T00:31:05.654Z,10.39
2022-11-18T00:32:05.686Z,10.46
2022-11-18T00:33:05.708Z,10.38
2022-11-18T00:34:05.631Z,10.39
2022-11-18T00:35:05.643Z,10.43
2022-11-18T00:36:05.610Z,10.32
2022-11-18T00:37:05.648Z,10.35
2022-11-18T00:38:05.586Z,10.32
2022-11-18T00:39:05.577Z,10.36
2022-11-18T00:40:05.598Z,10.31
2022-11-18T00:41:05.568Z,10.28
2022-11-18T00:42:05.620Z,10.29
2022-11-18T00:43:05.569Z,10.29
2022-11-18T00:44:09.506Z,10.26
2022-11-18T00:45:05.531Z,10.26
2022-11-18T00:46:05.529Z,10.26
2022-11-18T00:47:05.574Z,10.25
2022-11-18T00:48:05.489Z,10.25
2022-11-18T00:49:05.464Z,10.29
2022-11-18T00:50:05.454Z,10.26
2022-11-18T00:51:05.457Z,10.29
2022-11-18T00:52:05.547Z,10.24
2022-11-18T00:53:05.455Z,10.20
2022-11-18T00:54:05.406Z,10.20
2022-11-18T00:55:05.410Z,10.24
2022-11-18T00:56:05.377Z,10.16
2022-11-18T00:57:05.429Z,10.22
2022-11-18T00:58:05.364Z,10.14
2022-11-18T00:59:05.370Z,10.16
2022-11-18T01:00:05.346Z,10.20
2022-11-18T01:01:05.449Z,10.22
2022-11-18T01:02:05.353Z,10.22
2022-11-18T01:03:05.302Z,10.22
2022-11-18T01:04:05.317Z,10.13
2022-11-18T01:05:05.368Z,10.18
2022-11-18T01:06:05.288Z,10.17
2022-11-18T01:07:05.293Z,10.13
2022-11-18T01:08:05.284Z,10.07
2022-11-18T01:09:05.259Z,10.09
2022-11-18T01:10:05.238Z,10.06
2022-11-18T01:11:05.230Z,10.10
2022-11-18T01:12:05.206Z,10.04
2022-11-18T01:13:05.209Z,10.02
2022-11-18T01:14:05.296Z,10.10
2022-11-18T01:15:05.173Z,10.10
2022-11-18T01:16:05.165Z,10.10
2022-11-18T01:17:05.233Z,10.16
2022-11-18T01:18:05.148Z,10.11
2022-11-18T01:19:05.150Z,9.96
2022-11-18T01:20:05.119Z,10.02
2022-11-18T01:21:05.109Z,10.01
2022-11-18T01:22:05.135Z,9.98
2022-11-18T01:23:05.130Z,9.93
2022-11-18T01:24:05.074Z,10.02
2022-11-18T01:25:05.071Z,9.96
2022-11-18T01:26:05.057Z,9.95
2022-11-18T01:27:05.084Z,9.99
2022-11-18T01:28:05.033Z,9.98
2022-11-18T01:29:05.086Z,9.91
2022-11-18T01:30:05.022Z,9.99
2022-11-18T01:31:05.095Z,9.93
2022-11-18T01:33:05.995Z,9.95
2022-11-18T01:34:04.975Z,9.83
2022-11-18T01:35:04.965Z,9.91
2022-11-18T01:36:04.955Z,9.88
2022-11-18T01:37:05.032Z,9.88
2022-11-18T01:38:04.927Z,9.83
2022-11-18T01:39:04.918Z,9.93
2022-11-18T01:40:04.911Z,9.86
2022-11-18T01:41:04.899Z,9.88
2022-11-18T01:42:04.906Z,9.86
2022-11-18T01:43:04.937Z,9.91
2022-11-18T01:44:04.871Z,9.83
2022-11-18T01:45:04.914Z,9.85
2022-11-18T01:46:04.881Z,9.81
2022-11-18T01:47:04.863Z,9.89
2022-11-18T01:48:04.825Z,9.91
2022-11-18T01:49:04.821Z,9.81
2022-11-18T01:50:04.820Z,9.83
2022-11-18T01:51:04.857Z,9.78
2022-11-18T01:52:04.842Z,9.75
2022-11-18T01:53:04.792Z,9.83
2022-11-18T01:54:04.747Z,9.80
2022-11-18T01:55:04.791Z,9.74
2022-11-18T01:56:04.727Z,9.74
2022-11-18T01:57:04.729Z,9.67
2022-11-18T01:58:04.715Z,9.74
2022-11-18T01:59:04.708Z,9.68
2022-11-18T02:00:04.706Z,9.74
2022-11-18T02:01:04.761Z,9.67
2022-11-18T02:02:04.775Z,9.70
2022-11-18T02:03:04.652Z,9.70
2022-11-18T02:04:04.660Z,9.65
2022-11-18T02:05:04.688Z,9.71
2022-11-18T02:06:04.665Z,9.73
2022-11-18T02:07:04.696Z,9.62
2022-11-18T02:08:04.603Z,9.65
2022-11-18T02:09:04.582Z,9.60
2022-11-18T02:10:04.630Z,9.63
2022-11-18T02:11:04.591Z,9.62
2022-11-18T02:12:04.602Z,9.60
2022-11-18T02:13:04.559Z,9.59
2022-11-18T02:14:04.583Z,9.62
2022-11-18T02:15:04.570Z,9.53
2022-11-18T02:16:04.524Z,9.55
2022-11-18T02:17:04.601Z,9.55
2022-11-18T02:18:04.492Z,9.49
2022-11-18T02:19:04.505Z,9.56
2022-11-18T02:20:04.475Z,9.50
2022-11-18T02:21:04.501Z,9.49
2022-11-18T02:22:04.461Z,9.55
2022-11-18T02:23:04.466Z,9.50
2022-11-18T02:24:04.455Z,9.50
2022-11-18T02:25:04.441Z,9.52
2022-11-18T02:26:04.400Z,9.50
2022-11-18T02:27:04.391Z,9.52
2022-11-18T02:28:04.410Z,9.45
2022-11-18T02:29:04.384Z,9.49
2022-11-18T02:30:04.490Z,9.49
2022-11-18T02:31:04.363Z,9.48
2022-11-18T02:32:04.341Z,9.48
2022-11-18T02:33:04.362Z,9.48
2022-11-18T02:34:04.341Z,9.53
2022-11-18T02:35:04.321Z,9.50
2022-11-18T02:36:04.301Z,9.45
2022-11-18T02:37:04.324Z,9.48
2022-11-18T02:38:04.277Z,9.48
2022-11-18T02:39:04.303Z,9.45
2022-11-18T02:40:04.265Z,9.48
2022-11-18T02:41:04.317Z,9.45
2022-11-18T02:42:04.316Z,9.52
2022-11-18T02:43:04.225Z,9.48
2022-11-18T02:44:04.218Z,9.44
2022-11-18T02:45:04.214Z,9.49
2022-11-18T02:46:04.193Z,9.48
2022-11-18T02:47:04.318Z,9.50
2022-11-18T02:48:04.211Z,9.42
2022-11-18T02:49:04.171Z,9.42
2022-11-18T02:50:04.139Z,9.49
2022-11-18T02:51:04.160Z,9.44
2022-11-18T02:52:04.151Z,9.44
2022-11-18T02:53:04.141Z,9.45
2022-11-18T02:54:04.109Z,9.44
2022-11-18T02:55:04.086Z,9.49
2022-11-18T02:56:04.092Z,9.40
2022-11-18T02:57:04.096Z,9.48
2022-11-18T02:58:04.051Z,9.50
2022-11-18T02:59:04.079Z,9.44
2022-11-18T03:00:04.037Z,9.44
2022-11-18T03:01:04.124Z,9.50
2022-11-18T03:02:04.073Z,9.45
2022-11-18T03:03:04.012Z,9.44
2022-11-18T03:04:04.027Z,9.50
2022-11-18T03:05:03.968Z,9.48
2022-11-18T03:06:04.076Z,9.48
2022-11-18T03:07:04.008Z,9.44
2022-11-18T03:08:03.951Z,9.49
2022-11-18T03:09:03.924Z,9.44
2022-11-18T03:10:03.937Z,9.48
2022-11-18T03:11:03.959Z,9.49
2022-11-18T03:12:03.938Z,9.42
2022-11-18T03:13:03.884Z,9.49
2022-11-18T03:14:03.898Z,9.38
2022-11-18T03:15:03.865Z,9.45
2022-11-18T03:16:03.939Z,9.45
2022-11-18T03:17:03.882Z,9.45
2022-11-18T03:18:03.884Z,9.44
2022-11-18T03:19:03.841Z,9.52
2022-11-18T03:20:03.812Z,9.49
2022-11-18T03:21:03.851Z,9.45
2022-11-18T03:22:03.866Z,9.49
2022-11-18T03:23:03.814Z,9.49
2022-11-18T03:24:03.766Z,9.52
2022-11-18T03:25:03.767Z,9.50
2022-11-18T03:26:03.762Z,9.52
2022-11-18T03:27:03.762Z,9.52
2022-11-18T03:28:03.735Z,9.52
2022-11-18T03:29:03.775Z,9.45
2022-11-18T03:30:03.693Z,9.48
2022-11-18T03:31:03.705Z,9.53
2022-11-18T03:32:03.703Z,9.52
2022-11-18T03:33:03.670Z,9.60
2022-11-18T03:34:03.675Z,9.49
2022-11-18T03:35:03.676Z,9.45
2022-11-18T03:36:03.663Z,9.52
2022-11-18T03:37:07.759Z,9.53
2022-11-18T03:38:04.638Z,9.50
2022-11-18T03:39:03.850Z,9.52
2022-11-18T03:40:03.583Z,9.56
2022-11-18T03:41:03.591Z,9.48
2022-11-18T03:42:03.610Z,9.48
2022-11-18T03:43:03.551Z,9.50
2022-11-18T03:44:03.545Z,9.49
2022-11-18T03:45:03.563Z,9.50
2022-11-18T03:46:03.552Z,9.45
2022-11-18T03:47:03.518Z,9.53
2022-11-18T03:48:03.495Z,9.50
2022-11-18T03:49:03.507Z,9.52
2022-11-18T03:50:03.496Z,9.49
2022-11-18T03:51:03.500Z,9.48
2022-11-18T03:52:03.503Z,9.45
2022-11-18T03:53:03.439Z,9.49
2022-11-18T03:54:03.456Z,9.50
2022-11-18T03:55:03.503Z,9.45
2022-11-18T03:56:03.495Z,9.52
2022-11-18T03:57:03.440Z,9.45
2022-11-18T03:58:03.409Z,9.44
2022-11-18T03:59:03.393Z,9.50
2022-11-18T04:00:03.405Z,9.50
2022-11-18T04:01:03.397Z,9.53
2022-11-18T04:02:03.700Z,9.52
2022-11-18T04:03:03.507Z,9.50
2022-11-18T04:04:03.327Z,9.48
2022-11-18T04:05:03.397Z,9.52
2022-11-18T04:06:03.386Z,9.48
2022-11-18T04:07:03.396Z,9.45
2022-11-18T04:08:03.280Z,9.49
2022-11-18T04:09:03.273Z,9.44
2022-11-18T04:10:03.277Z,9.49
2022-11-18T04:11:03.274Z,9.45
2022-11-18T04:12:03.276Z,9.42
2022-11-18T04:13:06.484Z,9.42
2022-11-18T04:14:03.247Z,9.42
2022-11-18T04:15:03.196Z,9.52
2022-11-18T04:16:03.194Z,9.49
2022-11-18T04:17:03.225Z,9.37
2022-11-18T04:18:03.172Z,9.42
2022-11-18T04:19:06.356Z,9.45
2022-11-18T04:20:03.199Z,9.40
2022-11-18T04:21:03.224Z,9.48
2022-11-18T04:22:03.190Z,9.49
2022-11-18T04:23:03.131Z,9.41
2022-11-18T04:24:03.301Z,9.44
2022-11-18T04:25:03.116Z,9.40
2022-11-18T04:26:03.144Z,9.42
2022-11-18T04:27:03.144Z,9.50
2022-11-18T04:28:03.097Z,9.42
2022-11-18T04:29:03.059Z,9.41
2022-11-18T04:30:03.137Z,9.42
2022-11-18T04:31:03.028Z,9.49
2022-11-18T04:32:03.079Z,9.52
2022-11-18T04:33:03.007Z,9.53
2022-11-18T04:34:03.050Z,9.52
2022-11-18T04:35:03.061Z,9.53
2022-11-18T04:36:03.023Z,9.52
2022-11-18T04:37:02.999Z,9.45
2022-11-18T04:38:04.794Z,9.52
2022-11-18T04:39:02.967Z,9.52
2022-11-18T04:40:03.072Z,9.44
2022-11-18T04:41:03.002Z,9.52
2022-11-18T04:42:02.906Z,9.53
2022-11-18T04:43:03.002Z,9.55
2022-11-18T04:44:02.886Z,9.50
2022-11-18T04:45:02.884Z,9.48
2022-11-18T04:46:03.026Z,9.48
2022-11-18T04:47:02.867Z,9.52
2022-11-18T04:48:03.894Z,9.52
2022-11-18T04:49:02.842Z,9.58
2022-11-18T04:50:02.816Z,9.52
2022-11-18T04:51:02.848Z,9.50
2022-11-18T04:52:02.854Z,9.58
2022-11-18T04:53:02.811Z,9.60
2022-11-18T04:54:02.841Z,9.60
2022-11-18T04:55:02.783Z,9.56
2022-11-18T04:56:02.802Z,9.55
2022-11-18T04:57:02.801Z,9.56
2022-11-18T04:58:02.744Z,9.53
2022-11-18T04:59:02.763Z,9.52
2022-11-18T05:00:02.719Z,9.45
2022-11-18T05:01:02.816Z,9.50
2022-11-18T05:02:02.724Z,9.50
2022-11-18T05:03:02.748Z,9.45
2022-11-18T05:04:02.691Z,9.49
2022-11-18T05:05:02.670Z,9.52
2022-11-18T05:06:02.676Z,9.45
2022-11-18T05:07:02.758Z,9.44
2022-11-18T05:08:02.643Z,9.48
2022-11-18T05:09:02.654Z,9.48
2022-11-18T05:10:02.714Z,9.48
2022-11-18T05:11:02.634Z,9.45
2022-11-18T05:12:02.601Z,9.45
2022-11-18T05:13:02.566Z,9.38
2022-11-18T05:14:02.577Z,9.38
2022-11-18T05:15:02.574Z,9.40
2022-11-18T05:16:02.560Z,9.30
2022-11-18T05:17:02.566Z,9.38
2022-11-18T05:18:02.595Z,9.37
2022-11-18T05:19:02.515Z,9.34
2022-11-18T05:20:02.499Z,9.24
2022-11-18T05:21:02.479Z,9.32
2022-11-18T05:22:02.480Z,9.30
2022-11-18T05:23:02.452Z,9.24
2022-11-18T05:24:02.449Z,9.20
2022-11-18T05:25:02.463Z,9.24
2022-11-18T05:26:02.746Z,9.30
2022-11-18T05:27:02.481Z,9.23
2022-11-18T05:28:02.401Z,9.27
2022-11-18T05:29:02.398Z,9.23
2022-11-18T05:30:02.397Z,9.19
2022-11-18T05:31:02.467Z,9.16
2022-11-18T05:32:02.376Z,9.22
2022-11-18T05:33:02.359Z,9.23
2022-11-18T05:34:02.366Z,9.20
2022-11-18T05:35:02.326Z,9.20
2022-11-18T05:36:02.319Z,9.22
2022-11-18T05:37:02.400Z,9.19
2022-11-18T05:38:02.344Z,9.23
2022-11-18T05:39:02.302Z,9.20
2022-11-18T05:40:02.292Z,9.13
2022-11-18T05:41:02.265Z,9.17
2022-11-18T05:42:02.310Z,9.22
2022-11-18T05:43:02.295Z,9.15
2022-11-18T05:44:02.233Z,9.16
2022-11-18T05:45:02.221Z,9.16
2022-11-18T05:46:02.233Z,9.04
2022-11-18T05:47:02.210Z,9.16
2022-11-18T05:48:02.234Z,9.19
2022-11-18T05:49:02.179Z,9.04
2022-11-18T05:50:02.193Z,9.08
2022-11-18T05:51:02.178Z,9.10
2022-11-18T05:52:02.171Z,9.12
2022-11-18T05:53:02.179Z,9.01
2022-11-18T05:54:02.147Z,9.06
2022-11-18T05:55:02.097Z,9.00
2022-11-18T05:56:02.096Z,8.83
2022-11-18T05:57:02.129Z,8.96
2022-11-18T05:58:02.130Z,8.86
2022-11-18T05:59:02.084Z,8.88
2022-11-18T06:00:02.069Z,8.88
2022-11-18T06:01:02.048Z,8.96
2022-11-18T06:02:02.070Z,8.86
2022-11-18T06:03:02.214Z,8.85
2022-11-18T06:04:02.008Z,8.86
2022-11-18T06:05:02.019Z,8.89
2022-11-18T06:06:02.036Z,8.86
2022-11-18T06:07:02.086Z,8.88
2022-11-18T06:08:01.974Z,8.86
2022-11-18T06:09:01.970Z,8.85
2022-11-18T06:10:05.514Z,8.85
2022-11-18T06:11:01.948Z,8.89
2022-11-18T06:12:01.966Z,8.82
2022-11-18T06:13:01.917Z,8.91
2022-11-18T06:14:01.956Z,8.88
2022-11-18T06:15:01.985Z,8.91
2022-11-18T06:16:01.882Z,8.96
2022-11-18T06:17:01.910Z,8.91
2022-11-18T06:18:01.891Z,8.96
2022-11-18T06:19:01.850Z,8.94
2022-11-18T06:20:01.861Z,8.94
2022-11-18T06:21:01.828Z,9.01
2022-11-18T06:22:01.919Z,9.04
2022-11-18T06:23:01.816Z,9.06
2022-11-18T06:24:01.861Z,8.97
2022-11-18T06:25:01.785Z,8.98
2022-11-18T06:26:01.781Z,9.00
2022-11-18T06:27:01.827Z,8.91
2022-11-18T06:28:01.757Z,8.91
2022-11-18T06:29:01.799Z,8.89
2022-11-18T06:30:01.740Z,9.01
2022-11-18T06:31:01.768Z,9.01
2022-11-18T06:32:01.791Z,8.97
2022-11-18T06:33:01.696Z,8.86
2022-11-18T06:34:01.740Z,8.89
2022-11-18T06:35:01.680Z,8.91
2022-11-18T06:36:01.680Z,8.93
2022-11-18T06:37:01.734Z,9.00
2022-11-18T06:38:01.648Z,9.03
2022-11-18T06:39:01.679Z,8.96
2022-11-18T06:40:01.616Z,9.00
2022-11-18T06:41:01.628Z,8.97
2022-11-18T06:42:01.636Z,8.97
2022-11-18T06:43:01.641Z,8.98
2022-11-18T06:44:01.582Z,8.97
2022-11-18T06:45:01.636Z,8.98
2022-11-18T06:46:07.673Z,8.96
2022-11-18T06:47:02.587Z,9.04
2022-11-18T06:48:01.606Z,8.98
2022-11-18T06:49:01.516Z,9.01
2022-11-18T06:50:01.536Z,9.00
2022-11-18T06:51:01.512Z,8.97
2022-11-18T06:52:01.519Z,9.01
2022-11-18T06:53:01.498Z,9.01
2022-11-18T06:54:06.053Z,9.06
2022-11-18T06:55:02.492Z,8.98
2022-11-18T06:56:01.446Z,8.94
2022-11-18T06:57:01.455Z,9.00
2022-11-18T06:58:01.449Z,9.03
2022-11-18T06:59:01.461Z,9.00
2022-11-18T07:00:02.599Z,8.97
2022-11-18T07:01:01.441Z,9.00
2022-11-18T07:02:01.414Z,9.01
2022-11-18T07:03:01.389Z,9.00
2022-11-18T07:04:01.364Z,9.01
2022-11-18T07:05:01.380Z,9.00
2022-11-18T07:06:01.381Z,9.06
2022-11-18T07:07:01.469Z,9.04
2022-11-18T07:08:01.333Z,9.10
2022-11-18T07:09:01.320Z,9.13
2022-11-18T07:10:01.329Z,9.01
2022-11-18T07:11:01.304Z,9.01
2022-11-18T07:12:01.547Z,9.12
2022-11-18T07:13:01.295Z,9.10
2022-11-18T07:14:01.263Z,9.10
2022-11-18T07:15:01.272Z,9.01
2022-11-18T07:16:01.257Z,9.12
2022-11-18T07:17:01.251Z,9.04
2022-11-18T07:18:01.253Z,9.12
2022-11-18T07:19:01.239Z,9.06
2022-11-18T07:20:01.192Z,9.08
2022-11-18T07:21:01.227Z,9.08
2022-11-18T07:22:01.206Z,9.10
2022-11-18T07:23:01.160Z,9.10
2022-11-18T07:24:01.162Z,9.01
2022-11-18T07:25:01.155Z,9.10
2022-11-18T07:26:01.159Z,9.13
2022-11-18T07:27:01.177Z,9.06
2022-11-18T07:28:01.113Z,9.16
2022-11-18T07:29:01.118Z,9.10
2022-11-18T07:30:01.090Z,9.19
2022-11-18T07:31:01.086Z,9.19
2022-11-18T07:32:01.161Z,9.23
2022-11-18T07:33:01.076Z,9.19
2022-11-18T07:34:01.051Z,9.19
2022-11-18T07:35:01.049Z,9.16
2022-11-18T07:36:01.088Z,9.27
2022-11-18T07:37:01.109Z,9.30
2022-11-18T07:38:01.006Z,9.27
2022-11-18T07:39:00.994Z,9.37
2022-11-18T07:40:01.000Z,9.34
2022-11-18T07:41:00.958Z,9.42
2022-11-18T07:42:00.965Z,9.44
2022-11-18T07:43:00.979Z,9.42
2022-11-18T07:44:01.445Z,9.50
2022-11-18T07:45:00.953Z,9.49
2022-11-18T07:46:00.963Z,9.49
2022-11-18T07:47:00.915Z,9.56
2022-11-18T07:48:00.894Z,9.56
2022-11-18T07:49:00.961Z,9.60
2022-11-18T07:50:00.878Z,9.63
2022-11-18T07:51:00.921Z,9.58
2022-11-18T07:52:01.006Z,9.59
2022-11-18T07:53:00.859Z,9.60
2022-11-18T07:54:00.847Z,9.60
2022-11-18T07:55:00.813Z,9.63
2022-11-18T07:56:00.813Z,9.63
2022-11-18T07:57:00.815Z,9.60
2022-11-18T07:58:00.834Z,9.65
2022-11-18T07:59:00.760Z,9.59
2022-11-18T08:00:00.770Z,9.59
2022-11-18T08:01:00.825Z,9.71
2022-11-18T08:02:00.815Z,9.71
2022-11-18T08:03:00.742Z,9.70
2022-11-18T08:04:00.715Z,9.83
2022-11-18T08:05:00.747Z,9.71
2022-11-18T08:06:00.693Z,9.75
2022-11-18T08:07:00.784Z,9.80
2022-11-18T08:08:00.674Z,9.80
2022-11-18T08:09:00.667Z,9.89
2022-11-18T08:10:00.646Z,9.78
2022-11-18T08:11:00.632Z,9.78
2022-11-18T08:12:00.690Z,9.78
2022-11-18T08:13:00.631Z,9.86
2022-11-18T08:14:00.630Z,9.83
2022-11-18T08:15:00.656Z,9.83
2022-11-18T08:16:00.639Z,9.86
2022-11-18T08:17:00.606Z,9.83
2022-11-18T08:18:00.609Z,9.80
2022-11-18T08:19:00.672Z,9.89
2022-11-18T08:20:00.617Z,9.92
2022-11-18T08:21:00.527Z,9.91
2022-11-18T08:22:00.538Z,9.83
2022-11-18T08:23:00.662Z,9.83
2022-11-18T08:24:00.534Z,9.91
2022-11-18T08:25:00.491Z,9.88
2022-11-18T08:26:00.535Z,9.89
2022-11-18T08:27:00.483Z,9.83
2022-11-18T08:28:00.463Z,9.81
2022-11-18T08:29:00.534Z,9.83
2022-11-18T08:30:00.468Z,9.85
2022-11-18T08:31:00.433Z,9.86
2022-11-18T08:32:00.590Z,9.91
2022-11-18T08:33:00.405Z,9.83
2022-11-18T08:34:00.380Z,9.83
2022-11-18T08:35:00.372Z,9.83
2022-11-18T08:36:00.354Z,9.81
2022-11-18T08:37:00.383Z,9.88
2022-11-18T08:38:00.403Z,9.88
2022-11-18T08:39:00.420Z,9.89
2022-11-18T08:40:00.309Z,9.88
2022-11-18T08:41:00.303Z,9.86
2022-11-18T08:42:00.298Z,9.91
2022-11-18T08:43:00.308Z,9.91
2022-11-18T08:44:00.289Z,9.99
2022-11-18T08:45:00.252Z,10.01
2022-11-18T08:46:00.274Z,9.98
2022-11-18T08:47:00.280Z,10.02
2022-11-18T08:48:00.293Z,10.06
2022-11-18T08:49:00.302Z,10.04
2022-11-18T08:50:00.330Z,10.06
2022-11-18T08:51:00.208Z,10.04
2022-11-18T08:52:00.199Z,9.96
2022-11-18T08:53:00.168Z,10.02
2022-11-18T08:54:00.176Z,10.04
2022-11-18T08:55:00.165Z,10.02
2022-11-18T08:56:00.217Z,10.04
2022-11-18T08:57:00.175Z,10.02
2022-11-18T08:58:01.113Z,10.04
2022-11-18T08:59:00.204Z,10.04
2022-11-18T09:00:00.160Z,10.11
2022-11-18T09:01:00.107Z,10.10
2022-11-18T09:02:00.155Z,10.14
2022-11-18T09:03:00.071Z,9.98
2022-11-18T09:04:00.091Z,10.11
2022-11-18T09:05:00.110Z,10.09
2022-11-18T09:06:00.038Z,10.07
2022-11-18T09:07:00.143Z,10.16
2022-11-18T09:08:00.015Z,10.11
2022-11-18T09:09:05.983Z,10.09
2022-11-18T09:10:01.018Z,10.10
2022-11-18T09:10:59.997Z,10.17
2022-11-18T09:12:00.015Z,10.20
2022-11-18T09:13:18.444Z,10.14
2022-11-18T09:15:05.860Z,10.22
2022-11-18T09:15:16.914Z,10.13
2022-11-18T09:16:00.923Z,10.14
2022-11-18T09:16:59.992Z,10.18
2022-11-18T09:17:59.899Z,10.17
2022-11-18T09:19:04.914Z,10.18
2022-11-18T09:20:00.925Z,10.18
2022-11-18T09:20:59.889Z,10.26
2022-11-18T09:21:59.868Z,10.24
2022-11-18T09:22:59.845Z,10.28
2022-11-18T09:23:59.852Z,10.22
2022-11-18T09:24:59.831Z,10.32
2022-11-18T09:25:59.847Z,10.34
2022-11-18T09:26:59.848Z,10.35
2022-11-18T09:27:59.821Z,10.35
2022-11-18T09:28:59.800Z,10.34
2022-11-18T09:29:59.900Z,10.44
2022-11-18T09:30:59.766Z,10.34
2022-11-18T09:31:59.764Z,10.24
2022-11-18T09:32:59.752Z,10.26
2022-11-18T09:33:59.802Z,10.26
2022-11-18T09:34:59.789Z,10.28
2022-11-18T09:35:59.704Z,10.31
2022-11-18T09:36:59.705Z,10.26
2022-11-18T09:37:59.678Z,10.31
2022-11-18T09:38:59.685Z,10.24
2022-11-18T09:39:59.742Z,10.28
2022-11-18T09:40:59.645Z,10.22
2022-11-18T09:41:59.775Z,10.29
2022-11-18T09:42:59.764Z,10.28
2022-11-18T09:43:59.615Z,10.31
2022-11-18T09:44:59.666Z,10.32
2022-11-18T09:45:59.605Z,10.28
2022-11-18T09:46:59.608Z,10.31
2022-11-18T09:47:59.581Z,10.34
2022-11-18T09:48:59.598Z,10.42
2022-11-18T09:49:59.618Z,10.44
2022-11-18T09:50:59.570Z,10.42
2022-11-18T09:51:59.549Z,10.42
2022-11-18T09:52:59.551Z,10.52
2022-11-18T09:53:59.514Z,10.46
2022-11-18T09:54:59.527Z,10.47
2022-11-18T09:55:59.585Z,10.51
2022-11-18T09:56:59.568Z,10.47
2022-11-18T09:57:59.466Z,10.54
2022-11-18T09:58:59.491Z,10.54
2022-11-18T09:59:59.483Z,10.49
2022-11-18T10:00:59.439Z,10.49
2022-11-18T10:01:59.557Z,10.47
2022-11-18T10:02:59.442Z,10.51
2022-11-18T10:03:59.455Z,10.51
2022-11-18T10:04:59.434Z,10.55
2022-11-18T10:05:59.391Z,10.54
2022-11-18T10:06:59.429Z,10.57
2022-11-18T10:07:59.355Z,10.65
2022-11-18T10:08:59.383Z,10.58
2022-11-18T10:09:59.358Z,10.65
2022-11-18T10:10:59.321Z,10.76
2022-11-18T10:11:59.330Z,10.87
2022-11-18T10:12:59.333Z,10.83
2022-11-18T10:13:59.300Z,10.86
2022-11-18T10:14:59.305Z,10.91
2022-11-18T10:15:59.280Z,11.02
2022-11-18T10:16:59.292Z,11.11
2022-11-18T10:17:59.245Z,11.17
2022-11-18T10:19:00.705Z,11.27
2022-11-18T10:19:59.220Z,11.30
2022-11-18T10:20:59.251Z,11.27
2022-11-18T10:21:59.229Z,11.20
2022-11-18T10:22:59.205Z,11.20
2022-11-18T10:23:59.181Z,11.16
2022-11-18T10:24:59.235Z,11.11
2022-11-18T10:25:59.173Z,11.06
2022-11-18T10:26:59.210Z,11.05
2022-11-18T10:27:59.130Z,11.03
2022-11-18T10:28:59.121Z,10.90
2022-11-18T10:29:59.186Z,10.86
2022-11-18T10:30:59.135Z,10.86
2022-11-18T10:31:59.581Z,10.87
2022-11-18T10:32:59.117Z,10.91
2022-11-18T10:33:59.117Z,10.84
2022-11-18T10:34:59.111Z,10.86
2022-11-18T10:35:59.085Z,10.81
2022-11-18T10:36:59.124Z,10.84
2022-11-18T10:38:07.754Z,10.75
2022-11-18T10:39:00.053Z,10.81
2022-11-18T10:39:59.003Z,10.87
2022-11-18T10:40:59.011Z,10.83
2022-11-18T10:41:59.012Z,10.90
2022-11-18T10:42:59.010Z,10.95
2022-11-18T10:43:58.983Z,10.94
2022-11-18T10:44:58.988Z,11.03
2022-11-18T10:45:59.075Z,11.08
2022-11-18T10:46:58.967Z,11.09
2022-11-18T10:47:58.953Z,11.05
2022-11-18T10:48:58.966Z,10.94
2022-11-18T10:49:58.923Z,10.95
2022-11-18T10:50:58.960Z,10.93
2022-11-18T10:51:58.974Z,10.90
2022-11-18T10:52:59.291Z,10.88
2022-11-18T10:53:58.847Z,10.88
2022-11-18T10:54:58.886Z,10.88
2022-11-18T10:55:58.862Z,10.93
2022-11-18T10:56:58.856Z,10.83
2022-11-18T10:57:58.854Z,10.75
2022-11-18T10:58:58.800Z,10.80
2022-11-18T10:59:58.855Z,10.69
2022-11-18T11:00:58.798Z,10.63
2022-11-18T11:01:58.929Z,10.60
2022-11-18T11:02:58.809Z,10.51
2022-11-18T11:03:58.752Z,10.44
2022-11-18T11:04:58.732Z,10.34
2022-11-18T11:05:58.713Z,10.46
2022-11-18T11:06:58.870Z,10.42
2022-11-18T11:08:21.151Z,10.51
2022-11-18T11:08:59.681Z,10.46
2022-11-18T11:09:58.735Z,10.62
2022-11-18T11:10:58.688Z,10.65
2022-11-18T11:11:58.655Z,10.72
2022-11-18T11:12:58.661Z,10.81
2022-11-18T11:13:58.640Z,10.75
2022-11-18T11:14:58.729Z,10.88
2022-11-18T11:15:58.627Z,10.84
2022-11-18T11:16:58.691Z,10.86
2022-11-18T11:17:58.665Z,10.86
2022-11-18T11:18:58.616Z,10.81
2022-11-18T11:19:58.574Z,10.76
2022-11-18T11:20:58.670Z,10.72
2022-11-18T11:21:58.551Z,10.65
2022-11-18T11:22:58.563Z,10.80
2022-11-18T11:23:58.630Z,10.63
2022-11-18T11:24:58.572Z,10.60
2022-11-18T11:28:15.475Z,10.63
2022-11-18T11:28:59.500Z,10.76
2022-11-18T11:29:58.460Z,10.86
2022-11-18T11:30:58.452Z,10.94
2022-11-18T11:31:58.442Z,11.05
2022-11-18T11:32:58.469Z,11.26
2022-11-18T11:33:58.503Z,11.44
2022-11-18T11:34:58.505Z,11.54
2022-11-18T11:35:58.397Z,11.44
2022-11-18T11:36:58.397Z,11.57
2022-11-18T11:37:58.400Z,11.64
2022-11-18T11:39:04.049Z,11.57
2022-11-18T11:39:59.388Z,11.62
2022-11-18T11:40:58.417Z,11.75
2022-11-18T11:41:58.327Z,11.97
2022-11-18T11:42:58.328Z,12.13
2022-11-18T11:43:58.332Z,12.15
2022-11-18T11:44:58.363Z,12.13
2022-11-18T11:45:58.285Z,12.13
2022-11-18T11:46:58.299Z,12.16
2022-11-18T11:47:58.269Z,12.13
2022-11-18T11:48:58.303Z,12.33
2022-11-18T11:49:58.283Z,12.56
2022-11-18T11:51:03.851Z,12.88
2022-11-18T11:51:59.213Z,13.21
2022-11-18T11:52:58.215Z,13.19
2022-11-18T11:53:58.198Z,12.98
2022-11-18T11:54:58.210Z,12.92
2022-11-18T11:55:58.183Z,12.55
2022-11-18T11:56:58.211Z,12.44
2022-11-18T11:57:58.171Z,12.48
2022-11-18T11:58:58.187Z,12.29
2022-11-18T11:59:58.138Z,12.33
2022-11-18T12:00:58.120Z,12.31
2022-11-18T12:01:58.123Z,12.36
2022-11-18T12:02:58.395Z,12.11
2022-11-18T12:03:58.088Z,12.15
2022-11-18T12:04:58.086Z,12.16
2022-11-18T12:05:58.170Z,12.07
2022-11-18T12:06:58.132Z,12.29
2022-11-18T12:07:58.051Z,12.38
2022-11-18T12:08:58.152Z,12.46
2022-11-18T12:09:58.042Z,12.92
2022-11-18T12:10:58.029Z,13.75
2022-11-18T12:11:58.000Z,13.68
2022-11-18T12:12:57.987Z,13.54
2022-11-18T12:13:58.001Z,13.66
2022-11-18T12:14:57.982Z,13.57
2022-11-18T12:15:57.985Z,13.07
2022-11-18T12:16:57.993Z,13.28
2022-11-18T12:17:57.969Z,13.63
2022-11-18T12:18:58.004Z,13.90
2022-11-18T12:19:57.931Z,14.38
2022-11-18T12:20:57.899Z,14.66
2022-11-18T12:21:57.884Z,14.59
2022-11-18T12:22:57.939Z,14.36
2022-11-18T12:23:57.891Z,14.04
2022-11-18T12:24:57.892Z,13.73
2022-11-18T12:25:57.888Z,13.25
2022-11-18T12:26:57.840Z,12.91
2022-11-18T12:27:59.017Z,12.71
2022-11-18T12:28:57.816Z,12.67
2022-11-18T12:29:57.832Z,12.52
2022-11-18T12:30:57.893Z,12.59
2022-11-18T12:31:57.788Z,12.70
2022-11-18T12:32:57.824Z,12.87
2022-11-18T12:33:57.776Z,12.77
2022-11-18T12:34:57.747Z,12.51
2022-11-18T12:35:57.810Z,12.46
2022-11-18T12:36:57.722Z,12.40
2022-11-18T12:37:57.756Z,12.41
2022-11-18T12:38:57.785Z,12.30
2022-11-18T12:39:57.686Z,12.22
2022-11-18T12:40:57.729Z,12.16
2022-11-18T12:41:57.689Z,12.19
2022-11-18T12:42:57.764Z,12.11
2022-11-18T12:43:57.667Z,12.16
2022-11-18T12:44:57.658Z,12.01
2022-11-18T12:45:57.647Z,12.03
2022-11-18T12:46:57.613Z,11.90
2022-11-18T12:47:57.738Z,11.87
2022-11-18T12:48:57.610Z,11.69
2022-11-18T12:49:57.602Z,11.62
2022-11-18T12:50:57.572Z,11.59
2022-11-18T12:51:57.678Z,11.57
2022-11-18T12:52:57.577Z,11.56
2022-11-18T12:53:57.552Z,11.59
2022-11-18T12:54:57.584Z,11.44
2022-11-18T12:55:57.528Z,11.45
2022-11-18T12:56:57.501Z,11.38
2022-11-18T12:57:57.587Z,11.39
2022-11-18T12:58:57.502Z,11.24
2022-11-18T12:59:57.474Z,11.33
2022-11-18T13:00:57.508Z,11.31
2022-11-18T13:01:57.502Z,11.28
2022-11-18T13:02:57.488Z,11.20
2022-11-18T13:03:57.455Z,11.28
2022-11-18T13:04:57.518Z,11.30
2022-11-18T13:05:57.404Z,11.35
2022-11-18T13:06:57.514Z,11.38
2022-11-18T13:07:57.443Z,11.42
2022-11-18T13:08:57.400Z,11.53
2022-11-18T13:09:57.407Z,11.59